SL8 weather

Public forecast

Using degrees Celsius for public forecast. Weather courtesy of forecast.io.

Closest aviation weather report (METAR) to Lac Pontbriand Water Aerodrome

Closest report is Montreal International (Mirabel) Airport, 24.8 nm (45.9 km) SSW. Retrieved 2020/08/12 00:00 UTC (48 minutes ago):

CYMX 120000Z VRB02KT 15SM FEW050 BKN071 BKN250 24/21 A2977 RMK SC2AC3CI1 SLP083 DENSITY ALT 1600FT

Closest aviation forecast (TAF) to Lac Pontbriand Water Aerodrome

Closest forecast is Montreal International (Mirabel) Airport, 24.8 nm (45.9 km) SSW. Retrieved 2020-08-12 00:42 UTC (6 minutes ago):

TAF TAF CYMX 112339Z 1200/1224 21010KT P6SM BKN060 PROB30 1200/1201 VRB20G30KT 11/2SM +TSRA BR BKN020 BKN050CB FM120200 25008KT P6SM SCT020 BKN025 TEMPO 1202/1206 P6SM -SHRA BKN020 FM120600 25005KT P6SM SCT010 TEMPO 1206/1210 BKN010 PROB30 1206/1210 2SM BR BKN006 FM121500 24008KT P6SM FEW030 RMK NXT FCST BY 120600Z